Aérodrome :
LOGIN :

S'inscrire | Disclaimer

   EN    FR    IT 

 










Légende :    VFR   VFR Marginal   IFR   IFR Intensif   IFR Très Intensif
Visi : 
Plafond : 
>= 8 km
>= 3000ft
5 à 8 km
1000 à 3000 ft
1500m à 5 km
500 à 1000 ft
800 à 1500m
200 à 500 ft
< 800m
< 200 ft
Symboles :   Orages  Brouillard  Fortes neiges  Fortes précipitations  Vent > 20 kt
SIGMETs :   Divers  Orages  Givrage  Turbulence  Onde Orograph.  Cendres Volcan.







- Altitude de l'aérodrome : 348 ft
- Code IATA : STN
- Voir les cartes d'approche


EGSS - London Stansted

DERNIER METAR :
  • 200120Z 21006KT CAVOK 00/M01 Q1007

METARs EXPIRÉS :
  • 200050Z AUTO 23007KT 9999 NCD 00/M01 Q1007
  • 200020Z AUTO 24009KT 9999 NCD 01/M00 Q1007
  • 192350Z AUTO 23010KT 9999 NCD 01/M01 Q1008
  • 192320Z AUTO 21008KT 9999 NCD M00/M02 Q1008
  • 192250Z AUTO 22008KT 9999 NCD M02/M03 Q1008
  • 192220Z AUTO 22006KT 9999 NCD M01/M02 Q1008

TAF TAF EGSS
Valide du 20 à 00h jusqu'au 21 à 06h UTC


192300Z 2000/2106 23010KT 9999 FEW030
PROB30
TEMPO 2000/2004 BKN007
BECMG 2004/2007 VRB03KT 6000 -RADZ BKN005
TEMPO 2007/2016 2000 RADZ BKN004
PROB30
TEMPO 2009/2016 1400 RASN BR BKN001
BECMG 2019/2022 9999 NSW SCT011
PROB30
TEMPO 2022/2024 BKN006
ATIS : +44 1279 669 325
Pas de NOTAMs connus pour ce terrain.



MET'MAP, la Météo Aéronautique d'un coup d'oeil ! - Copyright ORBIFLY Décembre 2007 - Disclaimer

ORBIFLY MET'MAP TEAM :

Programmation & Développement : Alexandra Zaïnal
Conception & Développement : Baudouin d'Aumeries
Co-Programmation & Développement : Marc-Olivier Méhu
Soutien technique & logistique : Manuel Goepfert

Contact : metmap@orbifly.com




SOURCES & CREDITS :

   NOAA